createdAt,value
2016-08-05T00:00:26.700Z,54.20
2016-08-05T00:01:20.330Z,54.20
2016-08-05T00:02:24.491Z,54.20
2016-08-05T00:03:17.919Z,54.20
2016-08-05T00:04:13.378Z,54.20
2016-08-05T00:05:20.258Z,54.20
2016-08-05T00:06:13.369Z,54.20
2016-08-05T00:07:15.819Z,54.20
2016-08-05T00:08:25.759Z,54.20
2016-08-05T00:09:14.569Z,54.20
2016-08-05T00:10:12.911Z,54.20
2016-08-05T00:11:26.325Z,54.20
2016-08-05T00:12:26.440Z,54.20
2016-08-05T00:13:26.304Z,54.20
2016-08-05T00:14:14.235Z,54.20
2016-08-05T00:15:20.606Z,54.20
2016-08-05T00:16:18.860Z,54.20
2016-08-05T00:17:26.224Z,54.20
2016-08-05T00:18:27.134Z,54.20
2016-08-05T00:19:14.171Z,54.30
2016-08-05T00:20:28.911Z,54.30
2016-08-05T00:21:19.912Z,54.20
2016-08-05T00:22:20.828Z,is
2016-08-05T00:23:14.426Z,54.30
2016-08-05T00:24:26.361Z,54.20
2016-08-05T00:26:25.872Z,54.30
2016-08-05T00:27:21.359Z,54.20
2016-08-05T00:28:26.303Z,54.20
2016-08-05T00:29:21.973Z,54.20
2016-08-05T00:30:12.758Z,54.20
2016-08-05T00:31:19.406Z,54.20
2016-08-05T00:32:12.446Z,54.20
2016-08-05T00:33:13.759Z,54.30
2016-08-05T00:34:31.271Z,54.20
2016-08-05T00:35:29.318Z,54.30
2016-08-05T00:36:13.675Z,54.20
2016-08-05T00:37:21.269Z,54.20
2016-08-05T00:38:21.189Z,is
2016-08-05T00:39:22.499Z,54.20
2016-08-05T00:40:25.432Z,54.20
2016-08-05T00:41:13.519Z,54.20
2016-08-05T00:42:12.897Z,54.30
2016-08-05T00:43:11.060Z,is
2016-08-05T00:44:21.726Z,54.50
2016-08-05T00:45:22.875Z,54.20
2016-08-05T00:46:33.023Z,54.30
2016-08-05T00:47:29.320Z,54.20
2016-08-05T00:48:12.071Z,54.30
2016-08-05T00:49:13.115Z,54.30
2016-08-05T00:50:13.964Z,54.20
2016-08-05T00:51:22.941Z,54.20
2016-08-05T00:52:26.177Z,54.20
2016-08-05T00:53:12.757Z,54.20
2016-08-05T00:54:23.113Z,54.30
2016-08-05T00:55:27.499Z,54.30
2016-08-05T00:56:33.308Z,54.30
2016-08-05T00:57:11.021Z,is
2016-08-05T00:58:12.479Z,54.20
2016-08-05T00:59:23.984Z,54.30
2016-08-05T01:00:12.514Z,54.20
2016-08-05T01:01:18.268Z,54.20
2016-08-05T01:02:32.261Z,54.20
2016-08-05T01:03:12.360Z,54.20
2016-08-05T01:04:10.714Z,is
2016-08-05T01:05:25.850Z,54.20
2016-08-05T01:06:14.317Z,54.20
2016-08-05T01:07:28.989Z,54.20
2016-08-05T01:08:13.050Z,54.20
2016-08-05T01:09:14.934Z,54.20
2016-08-05T01:10:10.302Z,is
2016-08-05T01:11:33.789Z,54.20
2016-08-05T01:12:14.803Z,54.20
2016-08-05T01:13:17.274Z,54.20
2016-08-05T01:14:30.448Z,54.30
2016-08-05T01:15:13.190Z,54.20
2016-08-05T01:16:15.462Z,54.20
2016-08-05T01:17:15.113Z,54.20
2016-08-05T01:18:29.200Z,54.30
2016-08-05T01:19:20.266Z,54.30
2016-08-05T01:20:13.680Z,54.20
2016-08-05T01:21:22.602Z,54.20
2016-08-05T01:22:13.120Z,54.20
2016-08-05T01:23:13.159Z,54.20
2016-08-05T01:24:17.199Z,54.20
2016-08-05T01:25:11.985Z,54.10
2016-08-05T01:26:16.992Z,54.20
2016-08-05T01:27:10.386Z,is
2016-08-05T01:28:24.904Z,54.30
2016-08-05T01:29:12.151Z,54.20
2016-08-05T01:30:29.397Z,54.20
2016-08-05T01:31:12.269Z,54.20
2016-08-05T01:32:28.177Z,54.20
2016-08-05T01:33:22.008Z,54.20
2016-08-05T01:34:27.631Z,54.20
2016-08-05T01:35:22.656Z,54.10
2016-08-05T01:36:14.067Z,54.20
2016-08-05T01:37:36.700Z,54.20
2016-08-05T01:38:21.767Z,54.20
2016-08-05T01:39:15.342Z,54.30
2016-08-05T01:40:32.119Z,54.20
2016-08-05T01:41:22.759Z,54.20
2016-08-05T01:42:14.211Z,54.20
2016-08-05T01:43:26.284Z,54.10
2016-08-05T01:44:16.161Z,54.50
2016-08-05T01:45:20.361Z,54.20
2016-08-05T01:46:25.273Z,54.10
2016-08-05T01:47:14.248Z,54.20
2016-08-05T01:48:22.839Z,54.20
2016-08-05T01:49:16.601Z,54.20
2016-08-05T01:50:14.669Z,54.30
2016-08-05T01:51:20.998Z,54.20
2016-08-05T01:52:20.795Z,54.30
2016-08-05T01:53:13.927Z,54.30
2016-08-05T01:54:12.730Z,is
2016-08-05T01:56:27.735Z,54.20
2016-08-05T01:57:14.020Z,is
2016-08-05T01:58:28.019Z,54.10
2016-08-05T01:59:17.303Z,54.30
2016-08-05T02:00:15.475Z,54.20
2016-08-05T02:01:25.634Z,54.10
2016-08-05T02:02:25.614Z,54.20
2016-08-05T02:03:10.848Z,is
2016-08-05T02:04:20.703Z,54.20
2016-08-05T02:05:13.200Z,54.30
2016-08-05T02:06:13.488Z,is
2016-08-05T02:07:23.937Z,54.30
2016-08-05T02:08:13.966Z,54.20
2016-08-05T02:09:35.431Z,54.20
2016-08-05T02:11:20.250Z,54.30
2016-08-05T02:12:14.353Z,54.20
2016-08-05T02:13:17.631Z,54.30
2016-08-05T02:14:13.892Z,54.20
2016-08-05T02:15:26.127Z,54.30
2016-08-05T02:16:22.313Z,54.20
2016-08-05T02:17:23.098Z,54.30
2016-08-05T02:18:13.694Z,54.20
2016-08-05T02:19:13.556Z,54.50
2016-08-05T02:20:14.598Z,54.10
2016-08-05T02:21:15.405Z,54.10
2016-08-05T02:22:21.383Z,54.20
2016-08-05T02:23:15.860Z,54.20
2016-08-05T02:24:16.256Z,54.20
2016-08-05T02:25:12.580Z,is
2016-08-05T02:26:26.737Z,54.30
2016-08-05T02:27:12.585Z,54.30
2016-08-05T02:28:18.688Z,54.20
2016-08-05T02:29:23.319Z,54.20
2016-08-05T02:30:21.807Z,54.30
2016-08-05T02:31:22.808Z,54.20
2016-08-05T02:32:17.007Z,54.30
2016-08-05T02:33:21.868Z,54.10
2016-08-05T02:34:22.132Z,54.20
2016-08-05T02:35:26.133Z,54.20
2016-08-05T02:36:16.570Z,54.20
2016-08-05T02:37:20.731Z,54.30
2016-08-05T02:38:17.083Z,54.20
2016-08-05T02:39:22.001Z,54.20
2016-08-05T02:40:16.104Z,54.10
2016-08-05T02:41:17.149Z,54.20
2016-08-05T02:42:20.510Z,54.30
2016-08-05T02:43:22.017Z,54.20
2016-08-05T02:44:19.370Z,54.20
2016-08-05T02:45:20.897Z,54.20
2016-08-05T02:46:16.853Z,is
2016-08-05T02:47:27.848Z,54.30
2016-08-05T02:48:12.318Z,54.20
2016-08-05T02:49:21.374Z,54.20
2016-08-05T02:50:12.698Z,54.20
2016-08-05T02:51:27.529Z,54.20
2016-08-05T02:52:28.110Z,54.10
2016-08-05T02:53:25.882Z,54.30
2016-08-05T02:54:29.135Z,54.30
2016-08-05T02:55:19.240Z,54.20
2016-08-05T02:56:18.624Z,54.20
2016-08-05T02:57:27.160Z,54.30
2016-08-05T02:58:29.073Z,54.10
2016-08-05T02:59:11.231Z,is
2016-08-05T03:00:16.690Z,54.20
2016-08-05T03:01:20.139Z,54.20
2016-08-05T03:02:26.988Z,54.20
2016-08-05T03:03:13.350Z,54.30
2016-08-05T03:04:30.360Z,54.20
2016-08-05T03:05:20.394Z,54.20
2016-08-05T03:06:15.210Z,54.20
2016-08-05T03:07:22.027Z,53.90
2016-08-05T03:08:23.012Z,54.20
2016-08-05T03:09:26.980Z,54.20
2016-08-05T03:10:26.114Z,54.40
2016-08-05T03:11:29.616Z,54.30
2016-08-05T03:12:28.999Z,54.20
2016-08-05T03:13:21.275Z,54.20
2016-08-05T03:14:16.837Z,is
2016-08-05T03:15:12.062Z,54.20
2016-08-05T03:16:19.654Z,54.20
2016-08-05T03:17:12.536Z,54.20
2016-08-05T03:18:23.660Z,54.20
2016-08-05T03:19:21.535Z,54.30
2016-08-05T03:20:13.284Z,54.20
2016-08-05T03:21:22.627Z,54.30
2016-08-05T03:22:22.002Z,54.20
2016-08-05T03:23:19.234Z,54.50
2016-08-05T03:24:21.579Z,54.30
2016-08-05T03:25:13.653Z,54.30
2016-08-05T03:26:27.143Z,54.20
2016-08-05T03:27:22.361Z,54.20
2016-08-05T03:28:25.385Z,54.30
2016-08-05T03:29:32.917Z,54.20
2016-08-05T03:30:14.555Z,54.40
2016-08-05T03:31:21.499Z,54.40
2016-08-05T03:32:10.924Z,is
2016-08-05T03:33:16.152Z,is
2016-08-05T03:34:12.486Z,54.60
2016-08-05T03:35:26.269Z,54.40
2016-08-05T03:36:22.179Z,54.50
2016-08-05T03:37:21.055Z,54.50
2016-08-05T03:38:26.871Z,54.90
2016-08-05T03:39:22.499Z,54.40
2016-08-05T03:40:23.564Z,54.60
2016-08-05T03:41:22.146Z,54.50
2016-08-05T03:42:16.135Z,54.50
2016-08-05T03:43:21.359Z,54.40
2016-08-05T03:44:28.242Z,54.50
2016-08-05T03:45:14.085Z,54.50
2016-08-05T03:46:13.095Z,54.50
2016-08-05T03:47:28.283Z,54.60
2016-08-05T03:48:24.208Z,54.70
2016-08-05T03:49:22.767Z,54.50
2016-08-05T03:50:20.338Z,54.60
2016-08-05T03:51:12.444Z,54.70
2016-08-05T03:52:18.540Z,54.60
2016-08-05T03:53:21.622Z,54.70
2016-08-05T03:54:23.390Z,54.60
2016-08-05T03:55:23.328Z,54.70
2016-08-05T03:56:18.191Z,54.60
2016-08-05T03:57:15.427Z,54.70
2016-08-05T03:58:29.357Z,54.70
2016-08-05T03:59:19.957Z,54.70
2016-08-05T04:00:17.233Z,54.80
2016-08-05T04:01:17.572Z,54.70
2016-08-05T04:02:17.018Z,54.70
2016-08-05T04:03:12.309Z,54.70
2016-08-05T04:04:20.127Z,54.60
2016-08-05T04:05:20.780Z,54.60
2016-08-05T04:06:27.136Z,54.70
2016-08-05T04:07:37.518Z,54.70
2016-08-05T04:08:11.377Z,is
2016-08-05T04:09:17.234Z,54.60
2016-08-05T04:10:15.256Z,54.80
2016-08-05T04:11:14.536Z,54.80
2016-08-05T04:12:13.416Z,54.70
2016-08-05T04:13:12.447Z,54.80
2016-08-05T04:14:13.874Z,54.70
2016-08-05T04:15:19.338Z,54.70
2016-08-05T04:16:34.485Z,54.60
2016-08-05T04:17:24.628Z,54.70
2016-08-05T04:18:13.660Z,54.70
2016-08-05T04:19:20.696Z,54.80
2016-08-05T04:20:28.662Z,54.80
2016-08-05T04:21:25.078Z,54.90
2016-08-05T04:22:19.219Z,54.90
2016-08-05T04:23:31.270Z,54.80
2016-08-05T04:24:12.876Z,54.90
2016-08-05T04:25:18.244Z,54.80
2016-08-05T04:26:14.311Z,54.90
2016-08-05T04:27:23.071Z,54.80
2016-08-05T04:28:20.620Z,55.00
2016-08-05T04:29:19.465Z,55.00
2016-08-05T04:30:12.273Z,55.00
2016-08-05T04:31:37.217Z,54.80
2016-08-05T04:32:21.724Z,55.00
2016-08-05T04:33:28.097Z,55.00
2016-08-05T04:34:21.860Z,54.80
2016-08-05T04:35:28.560Z,54.90
2016-08-05T04:36:32.092Z,54.90
2016-08-05T04:37:22.572Z,55.00
2016-08-05T04:38:13.039Z,is
2016-08-05T04:39:16.207Z,54.90
2016-08-05T04:40:25.935Z,55.00
2016-08-05T04:41:20.007Z,54.90
2016-08-05T04:42:28.521Z,55.10
2016-08-05T04:43:25.991Z,55.00
2016-08-05T04:44:10.469Z,is
2016-08-05T04:45:14.858Z,55.20
2016-08-05T04:46:28.630Z,55.20
2016-08-05T04:47:25.381Z,55.10
2016-08-05T04:48:11.860Z,55.10
2016-08-05T04:49:12.753Z,55.20
2016-08-05T04:50:18.126Z,55.20
2016-08-05T04:51:27.569Z,55.10
2016-08-05T04:52:11.482Z,55.10
2016-08-05T04:53:12.201Z,55.10
2016-08-05T04:54:24.068Z,55.20
2016-08-05T04:55:24.835Z,55.30
2016-08-05T04:56:23.292Z,55.10
2016-08-05T04:57:25.355Z,55.20
2016-08-05T04:58:12.243Z,55.20
2016-08-05T04:59:22.612Z,55.10
2016-08-05T05:00:10.623Z,is
2016-08-05T05:01:25.942Z,55.10
2016-08-05T05:02:21.751Z,55.10
2016-08-05T05:03:13.101Z,55.30
2016-08-05T05:04:22.258Z,55.20
2016-08-05T05:05:23.536Z,55.20
2016-08-05T05:06:25.195Z,55.30
2016-08-05T05:07:21.399Z,55.20
2016-08-05T05:08:17.075Z,55.20
2016-08-05T05:09:16.667Z,55.20
2016-08-05T05:10:12.146Z,55.20
2016-08-05T05:11:23.154Z,55.50
2016-08-05T05:12:21.837Z,55.20
2016-08-05T05:13:14.079Z,55.20
2016-08-05T05:14:20.703Z,55.40
2016-08-05T05:15:25.428Z,55.20
2016-08-05T05:16:21.932Z,55.30
2016-08-05T05:17:23.127Z,55.40
2016-08-05T05:18:21.418Z,55.40
2016-08-05T05:19:23.139Z,55.40
2016-08-05T05:20:26.167Z,55.50
2016-08-05T05:21:28.373Z,55.20
2016-08-05T05:22:16.023Z,55.40
2016-08-05T05:23:26.660Z,55.20
2016-08-05T05:24:15.725Z,55.30
2016-08-05T05:25:11.383Z,is
2016-08-05T05:26:13.711Z,55.50
2016-08-05T05:27:21.587Z,55.30
2016-08-05T05:28:27.930Z,55.30
2016-08-05T05:29:25.464Z,55.30
2016-08-05T05:30:29.314Z,55.20
2016-08-05T05:31:26.564Z,55.40
2016-08-05T05:32:21.834Z,55.40
2016-08-05T05:33:12.886Z,55.50
2016-08-05T05:34:26.399Z,55.40
2016-08-05T05:35:27.091Z,55.50
2016-08-05T05:36:23.701Z,55.60
2016-08-05T05:37:15.166Z,55.60
2016-08-05T05:38:21.720Z,55.50
2016-08-05T05:39:28.179Z,55.50
2016-08-05T05:40:19.429Z,55.60
2016-08-05T05:41:19.510Z,55.50
2016-08-05T05:42:19.954Z,55.40
2016-08-05T05:43:12.775Z,55.50
2016-08-05T05:44:19.713Z,55.40
2016-08-05T05:45:13.511Z,55.60
2016-08-05T05:46:15.266Z,55.50
2016-08-05T05:47:13.386Z,55.70
2016-08-05T05:48:10.879Z,is
2016-08-05T05:49:18.058Z,55.50
2016-08-05T05:50:15.159Z,55.40
2016-08-05T05:51:12.946Z,55.60
2016-08-05T05:52:14.528Z,55.60
2016-08-05T05:53:14.054Z,55.60
2016-08-05T05:54:15.115Z,55.50
2016-08-05T05:55:18.747Z,55.50
2016-08-05T05:56:13.280Z,55.60
2016-08-05T05:57:12.519Z,is
2016-08-05T05:58:15.095Z,55.50
2016-08-05T05:59:14.663Z,55.60
2016-08-05T06:00:13.439Z,55.60
2016-08-05T06:01:17.396Z,55.40
2016-08-05T06:02:15.846Z,55.50
2016-08-05T06:03:16.687Z,55.50
2016-08-05T06:04:16.230Z,55.70
2016-08-05T06:05:13.867Z,55.60
2016-08-05T06:06:15.028Z,55.60
2016-08-05T06:07:17.472Z,55.50
2016-08-05T06:08:20.334Z,55.50
2016-08-05T06:09:13.470Z,55.50
2016-08-05T06:10:15.829Z,55.50
2016-08-05T06:11:14.704Z,55.70
2016-08-05T06:12:14.812Z,55.80
2016-08-05T06:13:13.109Z,55.70
2016-08-05T06:14:13.202Z,55.70
2016-08-05T06:15:17.952Z,55.70
2016-08-05T06:16:20.516Z,55.70
2016-08-05T06:17:17.044Z,55.70
2016-08-05T06:18:27.273Z,55.70
2016-08-05T06:19:21.572Z,55.70
2016-08-05T06:20:15.752Z,55.90
2016-08-05T06:21:27.809Z,56.00
2016-08-05T06:22:22.740Z,56.20
2016-08-05T06:23:16.136Z,56.10
2016-08-05T06:24:23.886Z,56.10
2016-08-05T06:25:15.579Z,56.30
2016-08-05T06:27:17.650Z,56.20
2016-08-05T06:28:22.807Z,56.20
2016-08-05T06:29:10.478Z,is
2016-08-05T06:30:11.670Z,56.10
2016-08-05T06:31:28.969Z,56.20
2016-08-05T06:32:11.621Z,is
2016-08-05T06:33:22.195Z,56.20
2016-08-05T06:34:21.672Z,56.70
2016-08-05T06:35:24.040Z,56.30
2016-08-05T06:36:16.364Z,56.60
2016-08-05T06:37:21.153Z,56.50
2016-08-05T06:38:27.064Z,56.40
2016-08-05T06:39:16.253Z,is
2016-08-05T06:40:22.886Z,56.30
2016-08-05T06:42:15.476Z,56.30
2016-08-05T06:43:12.550Z,56.00
2016-08-05T06:44:16.390Z,56.30
2016-08-05T06:45:16.189Z,56.70
2016-08-05T06:46:16.108Z,56.70
2016-08-05T06:47:27.363Z,56.70
2016-08-05T06:48:16.104Z,56.70
2016-08-05T06:49:19.870Z,56.70
2016-08-05T06:50:24.013Z,56.60
2016-08-05T06:51:17.806Z,56.50
2016-08-05T06:52:21.104Z,56.60
2016-08-05T06:53:11.611Z,56.60
2016-08-05T06:54:12.280Z,56.60
2016-08-05T06:55:26.767Z,56.70
2016-08-05T06:57:17.653Z,56.80
2016-08-05T06:58:11.944Z,56.80
2016-08-05T06:59:18.006Z,56.70
2016-08-05T07:00:24.790Z,56.80
2016-08-05T07:01:21.869Z,56.80
2016-08-05T07:02:28.521Z,56.60
2016-08-05T07:03:15.498Z,56.80
2016-08-05T07:04:13.258Z,56.70
2016-08-05T07:05:19.414Z,56.70
2016-08-05T07:06:22.646Z,56.70
2016-08-05T07:07:12.269Z,56.70
2016-08-05T07:08:11.565Z,56.50
2016-08-05T07:09:15.573Z,56.70
2016-08-05T07:10:19.411Z,56.60
2016-08-05T07:11:23.874Z,56.50
2016-08-05T07:12:21.538Z,56.60
2016-08-05T07:13:12.427Z,56.70
2016-08-05T07:14:14.729Z,is
2016-08-05T07:15:16.589Z,is
2016-08-05T07:16:20.156Z,57.30
2016-08-05T07:17:14.191Z,57.50
2016-08-05T07:18:13.322Z,57.30
2016-08-05T07:19:17.799Z,57.70
2016-08-05T07:20:26.530Z,58.10
2016-08-05T07:21:10.518Z,is
2016-08-05T07:22:21.790Z,57.30
2016-08-05T07:23:14.724Z,57.40
2016-08-05T07:24:22.480Z,57.20
2016-08-05T07:25:22.247Z,57.20
2016-08-05T07:27:20.835Z,57.00
2016-08-05T07:28:25.776Z,57.30
2016-08-05T07:29:18.073Z,57.40
2016-08-05T07:30:22.136Z,57.50
2016-08-05T07:31:21.361Z,57.60
2016-08-05T07:32:20.048Z,57.70
2016-08-05T07:33:13.115Z,57.70
2016-08-05T07:34:21.800Z,57.70
2016-08-05T07:35:22.020Z,is
2016-08-05T07:36:21.835Z,57.60
2016-08-05T07:37:25.577Z,57.70
2016-08-05T07:38:18.836Z,57.60
2016-08-05T07:39:12.082Z,57.50
2016-08-05T07:40:24.096Z,57.60
2016-08-05T07:41:17.171Z,57.60
2016-08-05T07:42:21.088Z,57.50
2016-08-05T07:43:21.203Z,57.70
2016-08-05T07:44:27.837Z,57.60
2016-08-05T07:45:19.109Z,57.90
2016-08-05T07:46:21.747Z,57.40
2016-08-05T07:47:21.790Z,is
2016-08-05T07:48:12.542Z,57.40
2016-08-05T07:49:17.407Z,57.60
2016-08-05T07:50:19.405Z,57.30
2016-08-05T07:51:22.593Z,57.30
2016-08-05T07:52:28.155Z,57.40
2016-08-05T07:53:25.510Z,57.40
2016-08-05T07:54:13.023Z,57.40
2016-08-05T07:55:12.379Z,57.30
2016-08-05T07:56:12.423Z,is
2016-08-05T07:57:13.161Z,57.30
2016-08-05T07:58:14.950Z,57.40
2016-08-05T07:59:25.264Z,57.30
2016-08-05T08:00:14.084Z,57.30
2016-08-05T08:01:20.831Z,57.40
2016-08-05T08:02:21.837Z,57.30
2016-08-05T08:03:21.925Z,57.30
2016-08-05T08:04:21.062Z,57.40
2016-08-05T08:05:22.206Z,57.30
2016-08-05T08:06:15.311Z,57.30
2016-08-05T08:07:22.009Z,is
2016-08-05T08:08:21.130Z,57.30
2016-08-05T08:09:23.110Z,57.30
2016-08-05T08:10:29.959Z,57.30
2016-08-05T08:12:17.179Z,57.30
2016-08-05T08:13:18.815Z,57.40
2016-08-05T08:14:17.139Z,57.30
2016-08-05T08:15:16.467Z,is
2016-08-05T08:16:12.238Z,57.30
2016-08-05T08:17:20.503Z,57.30
2016-08-05T08:18:20.228Z,57.20
2016-08-05T08:19:17.498Z,57.20
2016-08-05T08:20:16.903Z,57.20
2016-08-05T08:21:22.064Z,57.20
2016-08-05T08:22:17.522Z,57.20
2016-08-05T08:23:20.956Z,57.20
2016-08-05T08:24:27.900Z,57.10
2016-08-05T08:25:21.213Z,57.00
2016-08-05T08:26:20.757Z,57.10
2016-08-05T08:27:22.855Z,57.00
2016-08-05T08:28:21.861Z,57.20
2016-08-05T08:29:21.141Z,57.00
2016-08-05T08:30:27.136Z,57.00
2016-08-05T08:31:26.213Z,57.10
2016-08-05T08:32:20.934Z,57.00
2016-08-05T08:33:20.568Z,57.10
2016-08-05T08:34:27.533Z,57.00
2016-08-05T08:35:18.685Z,57.00
2016-08-05T08:36:12.787Z,57.00
2016-08-05T08:37:20.381Z,56.90
2016-08-05T08:38:20.175Z,57.00
2016-08-05T08:39:25.542Z,57.00
2016-08-05T08:40:26.547Z,57.10
2016-08-05T08:42:21.696Z,57.00
2016-08-05T08:43:28.189Z,57.00
2016-08-05T08:44:21.135Z,56.90
2016-08-05T08:45:23.107Z,56.90
2016-08-05T08:46:13.111Z,56.90
2016-08-05T08:47:27.088Z,57.00
2016-08-05T08:48:25.622Z,57.00
2016-08-05T08:49:27.818Z,56.90
2016-08-05T08:50:23.282Z,56.90
2016-08-05T08:51:16.878Z,56.70
2016-08-05T08:52:25.381Z,56.80
2016-08-05T08:53:22.126Z,56.70
2016-08-05T08:54:26.766Z,56.80
2016-08-05T08:55:21.857Z,56.80
2016-08-05T08:57:20.832Z,56.80
2016-08-05T08:58:19.503Z,56.70
2016-08-05T08:59:21.835Z,56.60
2016-08-05T09:00:21.198Z,56.60
2016-08-05T09:01:20.203Z,56.60
2016-08-05T09:02:18.144Z,56.70
2016-08-05T09:03:22.708Z,56.60
2016-08-05T09:04:11.737Z,is
2016-08-05T09:05:26.211Z,56.60
2016-08-05T09:06:20.814Z,56.60
2016-08-05T09:07:14.955Z,56.70
2016-08-05T09:08:27.077Z,56.50
2016-08-05T09:09:20.880Z,56.50
2016-08-05T09:10:21.467Z,56.30
2016-08-05T09:11:15.449Z,is
2016-08-05T09:12:22.835Z,56.20
2016-08-05T09:13:12.881Z,56.20
2016-08-05T09:14:17.802Z,56.20
2016-08-05T09:15:17.562Z,56.20
2016-08-05T09:16:20.981Z,56.20
2016-08-05T09:17:30.455Z,56.10
2016-08-05T09:18:23.343Z,56.10
2016-08-05T09:19:26.309Z,56.20
2016-08-05T09:20:27.118Z,56.20
2016-08-05T09:21:21.241Z,56.10
2016-08-05T09:22:22.169Z,is
2016-08-05T09:23:20.932Z,56.10
2016-08-05T09:24:20.435Z,56.00
2016-08-05T09:25:21.220Z,56.00
2016-08-05T09:26:21.417Z,56.10
2016-08-05T09:27:22.084Z,56.10
2016-08-05T09:28:16.020Z,is
2016-08-05T09:29:27.493Z,55.90
2016-08-05T09:30:20.960Z,56.10
2016-08-05T09:31:21.822Z,56.00
2016-08-05T09:32:26.712Z,56.10
2016-08-05T09:33:25.769Z,56.00
2016-08-05T09:34:27.843Z,55.80
2016-08-05T09:35:25.883Z,55.80
2016-08-05T09:36:17.082Z,is
2016-08-05T09:37:21.851Z,55.80
2016-08-05T09:38:26.978Z,55.80
2016-08-05T09:39:21.085Z,55.90
2016-08-05T09:40:20.548Z,55.70
2016-08-05T09:41:18.219Z,55.90
2016-08-05T09:42:21.645Z,55.80
2016-08-05T09:43:26.369Z,55.90
2016-08-05T09:44:20.810Z,55.80
2016-08-05T09:45:19.126Z,56.00
2016-08-05T09:46:21.322Z,55.80
2016-08-05T09:47:22.958Z,55.90
2016-08-05T09:48:21.812Z,is
2016-08-05T09:49:24.900Z,56.00
2016-08-05T09:50:21.779Z,55.80
2016-08-05T09:51:21.349Z,55.90
2016-08-05T09:52:22.401Z,55.80
2016-08-05T09:53:15.415Z,55.90
2016-08-05T09:54:12.288Z,55.90
2016-08-05T09:55:16.950Z,is
2016-08-05T09:56:25.772Z,55.80
2016-08-05T09:57:19.997Z,55.70
2016-08-05T09:58:22.330Z,55.90
2016-08-05T09:59:23.064Z,55.90
2016-08-05T10:00:19.184Z,55.60
2016-08-05T10:01:11.983Z,55.60
2016-08-05T10:02:15.724Z,55.30
2016-08-05T10:03:17.448Z,55.50
2016-08-05T10:04:10.733Z,is
2016-08-05T10:05:25.948Z,55.50
2016-08-05T10:06:12.258Z,55.30
2016-08-05T10:07:12.200Z,55.20
2016-08-05T10:08:21.763Z,54.20
2016-08-05T10:09:19.142Z,55.20
2016-08-05T10:10:21.265Z,55.30
2016-08-05T10:11:19.933Z,55.40
2016-08-05T10:12:17.369Z,55.20
2016-08-05T10:13:20.074Z,55.40
2016-08-05T10:14:26.367Z,55.20
2016-08-05T10:15:22.356Z,55.30
2016-08-05T10:16:15.503Z,is
2016-08-05T10:17:21.475Z,55.30
2016-08-05T10:18:22.732Z,55.10
2016-08-05T10:19:21.710Z,55.20
2016-08-05T10:20:20.402Z,55.20
2016-08-05T10:21:13.635Z,55.30
2016-08-05T10:22:24.913Z,55.30
2016-08-05T10:23:20.691Z,55.70
2016-08-05T10:24:20.772Z,is
2016-08-05T10:25:24.201Z,55.30
2016-08-05T10:26:13.901Z,55.20
2016-08-05T10:27:13.726Z,55.20
2016-08-05T10:28:13.250Z,55.30
2016-08-05T10:29:12.801Z,55.30
2016-08-05T10:30:14.259Z,55.30
2016-08-05T10:31:17.313Z,55.30
2016-08-05T10:32:19.079Z,55.30
2016-08-05T10:33:19.391Z,55.10
2016-08-05T10:34:18.802Z,55.20
2016-08-05T10:35:20.206Z,55.30
2016-08-05T10:36:18.371Z,55.20
2016-08-05T10:37:19.868Z,55.30
2016-08-05T10:38:22.131Z,55.20
2016-08-05T10:39:22.116Z,55.30
2016-08-05T10:40:20.828Z,55.20
2016-08-05T10:41:23.648Z,55.20
2016-08-05T10:42:17.772Z,55.20
2016-08-05T10:43:13.135Z,55.10
2016-08-05T10:44:18.103Z,55.00
2016-08-05T10:45:21.242Z,55.20
2016-08-05T10:46:12.720Z,55.20
2016-08-05T10:47:18.831Z,55.30
2016-08-05T10:48:17.015Z,55.20
2016-08-05T10:49:25.399Z,55.30
2016-08-05T10:50:20.807Z,55.30
2016-08-05T10:51:13.446Z,55.20
2016-08-05T10:52:20.366Z,55.30
2016-08-05T10:53:22.223Z,55.20
2016-08-05T10:54:22.109Z,55.20
2016-08-05T10:55:22.283Z,55.00
2016-08-05T10:56:25.765Z,55.10
2016-08-05T10:57:14.680Z,55.00
2016-08-05T10:58:23.589Z,54.40
2016-08-05T10:59:13.922Z,55.20
2016-08-05T11:00:12.643Z,55.10
2016-08-05T11:01:27.596Z,55.40
2016-08-05T11:02:19.370Z,55.00
2016-08-05T11:03:25.598Z,54.90
2016-08-05T11:04:12.444Z,55.10
2016-08-05T11:05:22.117Z,55.00
2016-08-05T11:06:22.369Z,55.00
2016-08-05T11:07:15.614Z,55.20
2016-08-05T11:08:26.553Z,54.90
2016-08-05T11:09:20.704Z,55.00
2016-08-05T11:10:12.676Z,55.00
2016-08-05T11:11:20.839Z,55.50
2016-08-05T11:12:16.633Z,is
2016-08-05T11:13:20.427Z,55.20
2016-08-05T11:14:21.508Z,55.00
2016-08-05T11:15:26.110Z,55.00
2016-08-05T11:16:26.977Z,55.00
2016-08-05T11:17:13.520Z,55.20
2016-08-05T11:18:16.824Z,55.10
2016-08-05T11:19:12.580Z,55.10
2016-08-05T11:20:16.118Z,55.20
2016-08-05T11:21:21.829Z,55.00
2016-08-05T11:22:20.367Z,54.80
2016-08-05T11:23:13.669Z,is
2016-08-05T11:24:18.813Z,54.70
2016-08-05T11:25:20.801Z,54.80
2016-08-05T11:26:27.449Z,55.00
2016-08-05T11:27:17.643Z,55.00
2016-08-05T11:28:19.183Z,54.90
2016-08-05T11:29:19.788Z,55.10
2016-08-05T11:30:29.132Z,54.90
2016-08-05T11:31:22.122Z,54.90
2016-08-05T11:32:21.190Z,55.00
2016-08-05T11:33:19.782Z,54.80
2016-08-05T11:34:12.530Z,54.90
2016-08-05T11:35:31.169Z,54.80
2016-08-05T11:36:12.418Z,54.60
2016-08-05T11:37:16.851Z,54.80
2016-08-05T11:38:13.328Z,55.00
2016-08-05T11:39:16.966Z,55.00
2016-08-05T11:40:25.835Z,55.20
2016-08-05T11:41:19.969Z,54.90
2016-08-05T11:42:19.142Z,55.10
2016-08-05T11:43:12.550Z,55.10
2016-08-05T11:44:20.497Z,54.90
2016-08-05T11:45:21.099Z,55.00
2016-08-05T11:46:18.773Z,54.90
2016-08-05T11:47:13.492Z,55.00
2016-08-05T11:48:22.138Z,55.20
2016-08-05T11:49:17.101Z,55.10
2016-08-05T11:50:18.094Z,55.00
2016-08-05T11:51:19.513Z,55.20
2016-08-05T11:52:31.567Z,54.80
2016-08-05T11:53:13.361Z,54.80
2016-08-05T11:54:11.864Z,is
2016-08-05T11:55:22.842Z,54.90
2016-08-05T11:56:21.452Z,is
2016-08-05T11:57:20.832Z,55.00
2016-08-05T11:58:13.629Z,55.00
2016-08-05T11:59:18.675Z,55.00
2016-08-05T12:00:17.976Z,55.10
2016-08-05T12:01:18.256Z,55.20
2016-08-05T12:02:27.570Z,55.00
2016-08-05T12:03:17.790Z,55.00
2016-08-05T12:04:26.773Z,55.00
2016-08-05T12:05:10.599Z,is
2016-08-05T12:06:20.062Z,55.10
2016-08-05T12:07:28.735Z,55.20
2016-08-05T12:08:17.233Z,is
2016-08-05T12:09:20.159Z,55.20
2016-08-05T12:10:15.224Z,55.20
2016-08-05T12:11:11.605Z,55.00
2016-08-05T12:12:13.080Z,55.10
2016-08-05T12:13:21.891Z,54.80
2016-08-05T12:14:26.992Z,55.20
2016-08-05T12:15:16.746Z,is
2016-08-05T12:16:20.767Z,55.10
2016-08-05T12:17:33.514Z,55.00
2016-08-05T12:18:14.374Z,55.10
2016-08-05T12:19:20.372Z,55.00
2016-08-05T12:20:14.055Z,55.00
2016-08-05T12:21:21.022Z,55.10
2016-08-05T12:22:22.104Z,55.00
2016-08-05T12:23:25.108Z,55.10
2016-08-05T12:24:12.843Z,55.00
2016-08-05T12:25:27.538Z,54.80
2016-08-05T12:26:12.209Z,55.10
2016-08-05T12:27:31.253Z,54.80
2016-08-05T12:28:10.588Z,is
2016-08-05T12:29:20.316Z,54.70
2016-08-05T12:30:19.833Z,is
2016-08-05T12:31:21.438Z,54.80
2016-08-05T12:32:12.744Z,54.90
2016-08-05T12:33:12.772Z,54.90
2016-08-05T12:34:13.941Z,55.00
2016-08-05T12:35:17.613Z,55.00
2016-08-05T12:36:13.499Z,55.00
2016-08-05T12:37:12.688Z,55.00
2016-08-05T12:38:13.572Z,55.10
2016-08-05T12:39:21.028Z,54.90
2016-08-05T12:40:21.480Z,55.00
2016-08-05T12:41:18.745Z,55.00
2016-08-05T12:43:26.999Z,54.70
2016-08-05T12:44:26.063Z,54.90
2016-08-05T12:45:19.550Z,55.00
2016-08-05T12:46:27.541Z,55.00
2016-08-05T12:47:16.623Z,54.90
2016-08-05T12:48:19.180Z,55.00
2016-08-05T12:49:16.143Z,55.00
2016-08-05T12:50:14.849Z,55.00
2016-08-05T12:51:15.207Z,55.00
2016-08-05T12:52:20.865Z,55.10
2016-08-05T12:53:19.138Z,is
2016-08-05T12:54:12.167Z,54.90
2016-08-05T12:55:25.776Z,55.00
2016-08-05T12:56:13.108Z,55.00
2016-08-05T12:58:39.128Z,54.90
2016-08-05T12:59:24.933Z,55.00
2016-08-05T13:00:18.249Z,54.90
2016-08-05T13:01:13.972Z,54.80
2016-08-05T13:02:12.845Z,54.80
2016-08-05T13:03:18.301Z,54.80
2016-08-05T13:04:20.501Z,54.90
2016-08-05T13:05:16.204Z,is
2016-08-05T13:06:26.157Z,54.70
2016-08-05T13:07:20.368Z,54.90
2016-08-05T13:08:15.450Z,54.90
2016-08-05T13:09:18.302Z,55.00
2016-08-05T13:10:17.677Z,54.90